Time;durP1;ratioP1;P1;durP2;ratioP2;P2;SDS_P1;SDS_P2;PMS_P1;PMS_P2;Temp;Humidity;BMP_temperature;BMP_pressure;BME280_temperature;BME280_humidity;BME280_pressure;Samples;Min_cycle;Max_cycle;Signal;HPM_P1;HPM_P2
2023/04/18 00:00:27;;;;;;;24.70;13.15;;;;;;;;;;5039554;28;20128;-60
2023/04/18 00:02:54;;;;;;;24.38;13.57;;;;;;;;;;5042747;28;20054;-59
2023/04/18 00:05:20;;;;;;;26.67;13.93;;;;;;;;;;5042764;28;20048;-60
2023/04/18 00:07:47;;;;;;;26.02;14.55;;;;;;;;;;5041390;28;20040;-60
2023/04/18 00:10:13;;;;;;;28.77;15.20;;;;;;;;;;5040657;28;20037;-59
2023/04/18 00:12:39;;;;;;;29.52;14.23;;;;;;;;;;5043123;28;20033;-60
2023/04/18 00:15:07;;;;;;;28.05;15.18;;;;;;;;;;5038635;28;20033;-60
2023/04/18 00:17:37;;;;;;;30.10;15.32;;;;;;;;;;5041401;28;20052;-60
2023/04/18 00:20:07;;;;;;;28.92;15.20;;;;;;;;;;5035657;28;20041;-61
2023/04/18 00:22:34;;;;;;;29.50;14.85;;;;;;;;;;5033653;28;20456;-60
2023/04/18 00:25:00;;;;;;;28.50;15.32;;;;;;;;;;5038497;28;20036;-59
2023/04/18 00:27:26;;;;;;;30.13;15.52;;;;;;;;;;5044058;28;20056;-60
2023/04/18 00:29:53;;;;;;;32.78;15.55;;;;;;;;;;5040740;28;20036;-60
2023/04/18 00:32:19;;;;;;;29.60;15.27;;;;;;;;;;5038992;28;20037;-59
2023/04/18 00:34:45;;;;;;;31.77;15.93;;;;;;;;;;5041211;28;20048;-59
2023/04/18 00:37:11;;;;;;;29.10;15.95;;;;;;;;;;5037759;28;20041;-59
2023/04/18 00:39:37;;;;;;;31.88;15.73;;;;;;;;;;5044668;28;20499;-59
2023/04/18 00:42:04;;;;;;;32.10;17.17;;;;;;;;;;5039823;28;20040;-59
2023/04/18 00:44:31;;;;;;;31.42;16.92;;;;;;;;;;5040880;28;20029;-59
2023/04/18 00:46:57;;;;;;;27.75;15.80;;;;;;;;;;5034261;28;20036;-59
2023/04/18 00:49:25;;;;;;;30.45;15.48;;;;;;;;;;5031278;28;20037;-60
2023/04/18 00:51:52;;;;;;;33.05;17.20;;;;;;;;;;5041766;28;20028;-60
2023/04/18 00:54:19;;;;;;;29.67;16.25;;;;;;;;;;5041463;28;20036;-60
2023/04/18 00:56:45;;;;;;;30.42;16.40;;;;;;;;;;5034195;28;20036;-60
2023/04/18 00:59:13;;;;;;;31.33;15.93;;;;;;;;;;5033950;28;20030;-60
2023/04/18 01:01:39;;;;;;;31.05;15.85;;;;;;;;;;5045808;28;20059;-60
2023/04/18 01:04:06;;;;;;;34.42;17.10;;;;;;;;;;5042185;28;20029;-59
2023/04/18 01:06:33;;;;;;;34.22;17.58;;;;;;;;;;5043888;28;20037;-60
2023/04/18 01:09:01;;;;;;;32.03;16.38;;;;;;;;;;5040805;28;20033;-59
2023/04/18 01:11:27;;;;;;;31.20;16.38;;;;;;;;;;5033703;28;20427;-60
2023/04/18 01:14:03;;;;;;;28.65;14.98;;;;;;;;;;5042528;28;20056;-59
2023/04/18 01:16:31;;;;;;;28.27;15.57;;;;;;;;;;5034900;28;20028;-61
2023/04/18 01:19:01;;;;;;;29.88;16.27;;;;;;;;;;5044525;28;20041;-60
2023/04/18 01:21:32;;;;;;;31.55;16.88;;;;;;;;;;5033474;28;20033;-60
2023/04/18 01:24:05;;;;;;;32.30;15.63;;;;;;;;;;5020347;28;20511;-59
2023/04/18 01:26:31;;;;;;;32.35;16.38;;;;;;;;;;5040395;28;20036;-59
2023/04/18 01:28:57;;;;;;;28.63;15.43;;;;;;;;;;5039197;28;20068;-60
2023/04/18 01:31:23;;;;;;;28.50;15.73;;;;;;;;;;5046587;28;20522;-60
2023/04/18 01:33:50;;;;;;;30.52;15.65;;;;;;;;;;5046754;28;20035;-60
2023/04/18 01:36:16;;;;;;;29.65;15.88;;;;;;;;;;5046525;28;20036;-59
2023/04/18 01:38:42;;;;;;;29.73;15.82;;;;;;;;;;5043175;28;20041;-58
2023/04/18 01:41:08;;;;;;;31.40;16.05;;;;;;;;;;5044189;28;20053;-60
2023/04/18 01:43:34;;;;;;;34.10;16.90;;;;;;;;;;5045916;28;20045;-60
2023/04/18 01:46:03;;;;;;;34.05;17.67;;;;;;;;;;5041914;28;20041;-60
2023/04/18 01:48:29;;;;;;;33.42;15.50;;;;;;;;;;5046185;28;20044;-60
2023/04/18 01:50:55;;;;;;;32.50;17.05;;;;;;;;;;5048590;28;20040;-59
2023/04/18 01:53:22;;;;;;;31.80;17.65;;;;;;;;;;5043985;28;20029;-60
2023/04/18 01:55:49;;;;;;;31.35;16.90;;;;;;;;;;5050836;28;20035;-60
2023/04/18 01:58:17;;;;;;;31.98;16.52;;;;;;;;;;5042705;28;20116;-60
2023/04/18 02:00:45;;;;;;;29.38;16.08;;;;;;;;;;5042030;28;20044;-59
2023/04/18 02:03:11;;;;;;;30.08;14.50;;;;;;;;;;5047855;28;20037;-59
2023/04/18 02:05:37;;;;;;;29.85;15.05;;;;;;;;;;5047422;28;20044;-59
2023/04/18 02:08:06;;;;;;;31.23;15.23;;;;;;;;;;5048783;28;20036;-59
2023/04/18 02:10:32;;;;;;;31.73;15.70;;;;;;;;;;5043121;28;20060;-59
2023/04/18 02:12:58;;;;;;;31.80;14.98;;;;;;;;;;5044835;28;20032;-59
2023/04/18 02:15:24;;;;;;;32.47;16.02;;;;;;;;;;5044327;28;20418;-60
2023/04/18 02:17:50;;;;;;;29.70;14.65;;;;;;;;;;5045687;28;20505;-59
2023/04/18 02:20:16;;;;;;;31.05;15.50;;;;;;;;;;5046080;28;20064;-60
2023/04/18 02:22:43;;;;;;;31.90;15.20;;;;;;;;;;5045862;28;20031;-60
2023/04/18 02:25:09;;;;;;;28.90;14.88;;;;;;;;;;5044654;28;20055;-60
2023/04/18 02:27:35;;;;;;;27.40;14.50;;;;;;;;;;5038986;28;20045;-59
2023/04/18 02:30:02;;;;;;;29.10;14.65;;;;;;;;;;5045434;28;20036;-59
2023/04/18 02:32:28;;;;;;;30.08;15.23;;;;;;;;;;5047889;28;20049;-59
2023/04/18 02:34:54;;;;;;;29.42;15.00;;;;;;;;;;5049409;28;20064;-60
2023/04/18 02:37:20;;;;;;;31.73;15.68;;;;;;;;;;5048789;28;20033;-59
2023/04/18 02:39:46;;;;;;;29.85;14.43;;;;;;;;;;5046268;28;20411;-60
2023/04/18 02:42:13;;;;;;;31.13;14.82;;;;;;;;;;5045389;28;20039;-59
2023/04/18 02:44:39;;;;;;;29.02;15.20;;;;;;;;;;5038681;28;20045;-59
2023/04/18 02:47:05;;;;;;;36.03;15.23;;;;;;;;;;5036927;28;20045;-59
2023/04/18 02:49:34;;;;;;;37.58;18.52;;;;;;;;;;5036580;28;20119;-60
2023/04/18 02:52:00;;;;;;;51.55;28.38;;;;;;;;;;5040272;28;20045;-60
2023/04/18 02:54:27;;;;;;;99.05;54.25;;;;;;;;;;5043264;28;20052;-59
2023/04/18 02:57:00;;;;;;;87.55;52.47;;;;;;;;;;5043153;28;20406;-59
2023/04/18 02:59:55;;;;;;;49.95;29.15;;;;;;;;;;5037369;28;20072;-60
2023/04/18 03:02:51;;;;;;;37.88;23.15;;;;;;;;;;5025105;28;20052;-59
2023/04/18 03:05:38;;;;;;;34.47;18.98;;;;;;;;;;5042444;28;20040;-60
2023/04/18 03:08:05;;;;;;;33.08;18.00;;;;;;;;;;5043299;28;20398;-60
2023/04/18 03:10:35;;;;;;;37.47;19.33;;;;;;;;;;5039042;28;20045;-60
2023/04/18 03:13:01;;;;;;;43.40;21.67;;;;;;;;;;5042314;28;20033;-60
2023/04/18 03:15:30;;;;;;;35.55;18.45;;;;;;;;;;5042846;28;20404;-59
2023/04/18 03:17:57;;;;;;;30.10;15.32;;;;;;;;;;5042077;28;20041;-61
2023/04/18 03:20:24;;;;;;;30.45;15.32;;;;;;;;;;5016943;28;20041;-60
2023/04/18 03:22:51;;;;;;;29.23;15.63;;;;;;;;;;5035415;28;20041;-60
2023/04/18 03:25:22;;;;;;;25.52;13.80;;;;;;;;;;5042139;28;20441;-59
2023/04/18 03:27:51;;;;;;;27.20;14.73;;;;;;;;;;5044236;28;20041;-59
2023/04/18 03:30:19;;;;;;;28.88;14.38;;;;;;;;;;5036328;28;20042;-59
2023/04/18 03:32:52;;;;;;;29.08;15.45;;;;;;;;;;5039964;28;20033;-59
2023/04/18 03:35:18;;;;;;;25.95;14.05;;;;;;;;;;5044637;28;20047;-59
2023/04/18 03:37:44;;;;;;;30.42;16.17;;;;;;;;;;5040016;28;20040;-59
2023/04/18 03:40:16;;;;;;;31.10;15.48;;;;;;;;;;5040773;28;20040;-60
2023/04/18 03:42:42;;;;;;;28.60;15.23;;;;;;;;;;5042604;28;20486;-59
2023/04/18 03:45:10;;;;;;;29.58;14.82;;;;;;;;;;5037360;28;20044;-59
2023/04/18 03:47:36;;;;;;;37.58;16.98;;;;;;;;;;5040242;28;20506;-59
2023/04/18 03:50:03;;;;;;;33.03;16.42;;;;;;;;;;5040592;28;20029;-59
2023/04/18 03:52:29;;;;;;;34.70;16.38;;;;;;;;;;5036267;28;20041;-59
2023/04/18 03:54:55;;;;;;;36.58;16.92;;;;;;;;;;5042094;28;20033;-59
2023/04/18 03:57:25;;;;;;;39.88;17.90;;;;;;;;;;5036526;28;20037;-60
2023/04/18 03:59:51;;;;;;;39.03;16.40;;;;;;;;;;5040934;28;20052;-59
2023/04/18 04:02:17;;;;;;;30.55;16.15;;;;;;;;;;5042626;28;20037;-60
2023/04/18 04:04:43;;;;;;;35.08;15.50;;;;;;;;;;5038329;28;20048;-59
2023/04/18 04:07:10;;;;;;;37.05;17.58;;;;;;;;;;5040818;28;20418;-59
2023/04/18 04:09:37;;;;;;;32.90;16.05;;;;;;;;;;5038122;28;20025;-59
2023/04/18 04:12:03;;;;;;;37.95;17.58;;;;;;;;;;5038804;28;20071;-59
2023/04/18 04:14:29;;;;;;;30.83;14.93;;;;;;;;;;5037914;28;20056;-59
2023/04/18 04:16:56;;;;;;;29.80;14.43;;;;;;;;;;5038181;28;20040;-59
2023/04/18 04:19:22;;;;;;;35.33;15.82;;;;;;;;;;5040098;28;20049;-59
2023/04/18 04:21:56;;;;;;;30.10;15.35;;;;;;;;;;5037236;28;20060;-60
2023/04/18 04:24:23;;;;;;;28.38;14.10;;;;;;;;;;5041003;28;20029;-60
2023/04/18 04:26:50;;;;;;;25.05;13.43;;;;;;;;;;5039450;28;20056;-60
2023/04/18 04:29:20;;;;;;;25.67;13.73;;;;;;;;;;5036295;28;20041;-59
2023/04/18 04:31:47;;;;;;;26.10;13.45;;;;;;;;;;5035115;28;20045;-60
2023/04/18 04:34:20;;;;;;;30.45;15.27;;;;;;;;;;5036230;28;20044;-59
2023/04/18 04:36:47;;;;;;;33.75;15.95;;;;;;;;;;5035653;28;20041;-59
2023/04/18 04:39:13;;;;;;;25.75;13.35;;;;;;;;;;5034652;28;20045;-59
2023/04/18 04:42:02;;;;;;;25.63;13.55;;;;;;;;;;5041432;28;20040;-59
2023/04/18 04:44:32;;;;;;;26.40;13.68;;;;;;;;;;5044955;28;20021;-59
2023/04/18 04:46:58;;;;;;;28.48;14.95;;;;;;;;;;5044874;28;20044;-60
2023/04/18 04:49:30;;;;;;;29.48;14.23;;;;;;;;;;5041391;28;20025;-60
2023/04/18 04:51:56;;;;;;;34.92;14.70;;;;;;;;;;5041171;28;20029;-59
2023/04/18 04:54:23;;;;;;;34.97;15.32;;;;;;;;;;5036520;28;20033;-59
2023/04/18 04:56:50;;;;;;;42.22;17.90;;;;;;;;;;5038717;28;20040;-59
2023/04/18 04:59:16;;;;;;;28.38;13.88;;;;;;;;;;5039449;28;20045;-58
2023/04/18 05:01:45;;;;;;;22.92;12.48;;;;;;;;;;5047038;28;20033;-55
2023/04/18 05:04:11;;;;;;;48.05;18.75;;;;;;;;;;5044266;28;20426;-56
2023/04/18 05:06:38;;;;;;;42.00;17.70;;;;;;;;;;5038846;28;20124;-56
2023/04/18 05:09:04;;;;;;;33.78;16.70;;;;;;;;;;5036173;28;20041;-56
2023/04/18 05:11:30;;;;;;;47.47;18.95;;;;;;;;;;5035504;28;20037;-57
2023/04/18 05:13:56;;;;;;;44.78;18.40;;;;;;;;;;5044953;28;20063;-56
2023/04/18 05:16:22;;;;;;;38.58;16.02;;;;;;;;;;5049041;28;20498;-56
2023/04/18 05:18:48;;;;;;;33.85;13.82;;;;;;;;;;5039244;28;20046;-58
2023/04/18 05:21:14;;;;;;;33.55;15.30;;;;;;;;;;5038080;28;20428;-57
2023/04/18 05:23:41;;;;;;;31.20;15.23;;;;;;;;;;5035874;28;20031;-56
2023/04/18 05:26:07;;;;;;;32.88;14.45;;;;;;;;;;5032899;28;20089;-57
2023/04/18 05:28:33;;;;;;;40.00;16.83;;;;;;;;;;5043886;28;20056;-56
2023/04/18 05:31:02;;;;;;;43.70;18.48;;;;;;;;;;5040857;28;20057;-56
2023/04/18 05:33:31;;;;;;;35.35;16.30;;;;;;;;;;5042214;28;20036;-56
2023/04/18 05:35:58;;;;;;;28.92;13.85;;;;;;;;;;5043125;28;20499;-57
2023/04/18 05:38:24;;;;;;;26.80;14.05;;;;;;;;;;5041327;28;20616;-57
2023/04/18 05:40:50;;;;;;;23.45;14.13;;;;;;;;;;5034713;28;20029;-57
2023/04/18 05:43:18;;;;;;;23.35;13.40;;;;;;;;;;5033333;28;20047;-56
2023/04/18 05:45:44;;;;;;;25.67;13.80;;;;;;;;;;5036552;28;20399;-56
2023/04/18 05:48:11;;;;;;;26.88;14.57;;;;;;;;;;5036606;28;20057;-57
2023/04/18 05:50:37;;;;;;;29.83;15.27;;;;;;;;;;5036883;28;20040;-57
2023/04/18 05:53:03;;;;;;;28.33;15.15;;;;;;;;;;5043808;28;20041;-56
2023/04/18 05:55:29;;;;;;;30.73;14.00;;;;;;;;;;5047016;28;20032;-57
2023/04/18 05:57:55;;;;;;;23.88;13.48;;;;;;;;;;5033728;28;20037;-57
2023/04/18 06:00:22;;;;;;;24.88;13.55;;;;;;;;;;5033718;28;20040;-56
2023/04/18 06:02:49;;;;;;;26.52;14.57;;;;;;;;;;5034677;28;20033;-58
2023/04/18 06:05:15;;;;;;;27.58;14.32;;;;;;;;;;5035400;28;20406;-56
2023/04/18 06:07:41;;;;;;;24.23;13.77;;;;;;;;;;5040184;28;20060;-57
2023/04/18 06:10:10;;;;;;;27.70;14.35;;;;;;;;;;5044431;28;20048;-56
2023/04/18 06:12:36;;;;;;;26.88;14.00;;;;;;;;;;5038361;28;20049;-56
2023/04/18 06:15:04;;;;;;;24.60;13.82;;;;;;;;;;5030279;28;20506;-56
2023/04/18 06:17:30;;;;;;;28.40;14.05;;;;;;;;;;5050271;28;20427;-57
2023/04/18 06:19:56;;;;;;;24.30;14.65;;;;;;;;;;5047099;28;20095;-57
2023/04/18 06:22:23;;;;;;;24.08;12.73;;;;;;;;;;5046143;28;20755;-56
2023/04/18 06:24:49;;;;;;;30.65;15.45;;;;;;;;;;5040285;28;20558;-56
2023/04/18 06:27:16;;;;;;;24.95;13.50;;;;;;;;;;5043673;28;20560;-56
2023/04/18 06:29:42;;;;;;;25.83;15.10;;;;;;;;;;5045312;28;20055;-56
2023/04/18 06:32:08;;;;;;;24.15;13.98;;;;;;;;;;5036714;28;20754;-56
2023/04/18 06:34:37;;;;;;;29.27;14.07;;;;;;;;;;5043356;28;20037;-57
2023/04/18 06:37:03;;;;;;;25.50;14.43;;;;;;;;;;5041877;28;20417;-56
2023/04/18 06:39:29;;;;;;;33.63;15.38;;;;;;;;;;5040086;28;20036;-56
2023/04/18 06:41:56;;;;;;;28.08;16.25;;;;;;;;;;5041448;28;20068;-57
2023/04/18 06:44:27;;;;;;;26.00;15.23;;;;;;;;;;5036892;28;20033;-57
2023/04/18 06:46:53;;;;;;;30.48;16.10;;;;;;;;;;5043163;28;20029;-56
2023/04/18 06:49:20;;;;;;;25.00;15.05;;;;;;;;;;5041918;28;20034;-56
2023/04/18 06:51:46;;;;;;;27.33;15.05;;;;;;;;;;5037741;28;20061;-56
2023/04/18 06:54:12;;;;;;;26.75;14.57;;;;;;;;;;5044926;28;20040;-56
2023/04/18 06:56:38;;;;;;;27.20;15.30;;;;;;;;;;5043859;28;20644;-57
2023/04/18 06:59:04;;;;;;;28.98;15.93;;;;;;;;;;5036960;28;20589;-56
2023/04/18 07:01:33;;;;;;;29.10;16.60;;;;;;;;;;5039098;28;20053;-56
2023/04/18 07:04:00;;;;;;;25.70;14.45;;;;;;;;;;5036804;28;20553;-56
2023/04/18 07:06:26;;;;;;;27.08;15.75;;;;;;;;;;5040925;28;20041;-57
2023/04/18 07:08:54;;;;;;;28.15;15.23;;;;;;;;;;5042454;28;20037;-56
2023/04/18 07:11:22;;;;;;;27.65;15.45;;;;;;;;;;5043401;28;20044;-57
2023/04/18 07:13:49;;;;;;;26.95;15.75;;;;;;;;;;5042352;28;20392;-57
2023/04/18 07:16:15;;;;;;;28.08;14.98;;;;;;;;;;5031125;28;20048;-56
2023/04/18 07:18:41;;;;;;;27.27;14.95;;;;;;;;;;5035738;28;20037;-55
2023/04/18 07:21:07;;;;;;;26.70;15.60;;;;;;;;;;5039945;28;20419;-57
2023/04/18 07:23:34;;;;;;;24.13;14.35;;;;;;;;;;5050156;28;20045;-56
2023/04/18 07:26:01;;;;;;;29.20;17.02;;;;;;;;;;5041605;28;20041;-56
2023/04/18 07:28:28;;;;;;;27.33;15.95;;;;;;;;;;5047595;28;20036;-56
2023/04/18 07:30:55;;;;;;;27.30;15.23;;;;;;;;;;5046678;28;20045;-57
2023/04/18 07:33:22;;;;;;;26.00;14.90;;;;;;;;;;5041832;28;20052;-55
2023/04/18 07:35:49;;;;;;;30.17;14.52;;;;;;;;;;5034320;28;20506;-56
2023/04/18 07:38:15;;;;;;;30.75;15.90;;;;;;;;;;5042744;28;20045;-56
2023/04/18 07:40:41;;;;;;;24.67;14.30;;;;;;;;;;5039141;28;20490;-56
2023/04/18 07:43:08;;;;;;;29.05;15.55;;;;;;;;;;5045823;28;20063;-56
2023/04/18 07:45:37;;;;;;;28.88;14.98;;;;;;;;;;5039516;28;20529;-56
2023/04/18 07:48:04;;;;;;;29.10;15.52;;;;;;;;;;5043365;28;20043;-56
2023/04/18 07:50:30;;;;;;;27.25;15.55;;;;;;;;;;5040186;28;20029;-56
2023/04/18 07:52:56;;;;;;;26.95;15.30;;;;;;;;;;5036560;28;20487;-56
2023/04/18 07:55:22;;;;;;;27.40;15.25;;;;;;;;;;5039521;28;20082;-56
2023/04/18 07:57:49;;;;;;;28.83;14.52;;;;;;;;;;5045043;28;20036;-56
2023/04/18 08:00:16;;;;;;;26.92;14.63;;;;;;;;;;5042808;28;20052;-55
2023/04/18 08:02:43;;;;;;;29.85;15.50;;;;;;;;;;5040914;28;20465;-56
2023/04/18 08:05:09;;;;;;;27.52;14.88;;;;;;;;;;5041202;28;20049;-56
2023/04/18 08:07:35;;;;;;;27.42;15.43;;;;;;;;;;5046199;28;20486;-56
2023/04/18 08:10:02;;;;;;;30.17;15.68;;;;;;;;;;5036640;28;20045;-56
2023/04/18 08:12:28;;;;;;;28.63;14.95;;;;;;;;;;5032876;28;20041;-57
2023/04/18 08:14:54;;;;;;;28.80;14.70;;;;;;;;;;5034368;28;20050;-56
2023/04/18 08:17:22;;;;;;;26.38;14.43;;;;;;;;;;5046034;28;20052;-56
2023/04/18 08:19:48;;;;;;;28.70;15.63;;;;;;;;;;5043587;28;20043;-57
2023/04/18 08:22:14;;;;;;;29.58;15.23;;;;;;;;;;5044741;28;20044;-57
2023/04/18 08:24:41;;;;;;;26.20;14.82;;;;;;;;;;5043096;28;20033;-57
2023/04/18 08:27:07;;;;;;;31.02;15.38;;;;;;;;;;5041409;28;20048;-57
2023/04/18 08:29:33;;;;;;;28.08;14.95;;;;;;;;;;5033293;28;20040;-57
2023/04/18 08:31:59;;;;;;;30.25;14.55;;;;;;;;;;5042452;28;20038;-57
2023/04/18 08:34:27;;;;;;;28.35;14.82;;;;;;;;;;5042479;28;20463;-56
2023/04/18 08:36:53;;;;;;;27.10;15.02;;;;;;;;;;5040953;28;20410;-57
2023/04/18 08:39:20;;;;;;;29.42;16.15;;;;;;;;;;5041565;28;20052;-56
2023/04/18 08:41:52;;;;;;;26.98;15.00;;;;;;;;;;5042253;28;20557;-57
2023/04/18 08:44:18;;;;;;;26.48;15.07;;;;;;;;;;5042454;28;20050;-55
2023/04/18 08:46:45;;;;;;;29.42;15.50;;;;;;;;;;5047162;28;20056;-57
2023/04/18 08:49:11;;;;;;;26.35;14.82;;;;;;;;;;5046804;28;20048;-56
2023/04/18 08:51:39;;;;;;;26.70;14.88;;;;;;;;;;5041794;28;20041;-56
2023/04/18 08:54:05;;;;;;;28.38;15.82;;;;;;;;;;5035992;28;20410;-57
2023/04/18 08:56:31;;;;;;;29.42;16.08;;;;;;;;;;5038115;28;20422;-58
2023/04/18 08:58:59;;;;;;;30.02;15.82;;;;;;;;;;5032626;28;20057;-57
2023/04/18 09:01:58;;;;;;;27.90;15.20;;;;;;;;;;5036844;28;20072;-58
2023/04/18 09:04:34;;;;;;;28.40;15.60;;;;;;;;;;5043150;28;20089;-57
2023/04/18 09:07:01;;;;;;;26.63;15.80;;;;;;;;;;5041807;28;20041;-57
2023/04/18 09:09:42;;;;;;;27.42;15.50;;;;;;;;;;5041446;28;20454;-56
2023/04/18 09:12:10;;;;;;;27.48;15.55;;;;;;;;;;5043749;28;20507;-57
2023/04/18 09:14:36;;;;;;;28.63;16.15;;;;;;;;;;5033606;28;20047;-57
2023/04/18 09:17:04;;;;;;;24.00;14.63;;;;;;;;;;5031313;28;20037;-56
2023/04/18 09:19:32;;;;;;;24.25;14.48;;;;;;;;;;5038208;28;20491;-57
2023/04/18 09:22:00;;;;;;;24.40;14.15;;;;;;;;;;5033420;28;20049;-57
2023/04/18 09:24:27;;;;;;;27.23;14.80;;;;;;;;;;5032640;28;20052;-57
2023/04/18 09:26:55;;;;;;;27.08;15.50;;;;;;;;;;5038282;28;20037;-56
2023/04/18 09:29:41;;;;;;;24.92;15.30;;;;;;;;;;5039678;28;20044;-57
2023/04/18 09:32:07;;;;;;;27.90;17.25;;;;;;;;;;5040791;28;20053;-56
2023/04/18 09:34:37;;;;;;;24.75;14.80;;;;;;;;;;5034222;28;20112;-56
2023/04/18 09:37:10;;;;;;;;;;;;;;;;;;5045752;28;20029;-56
2023/04/18 09:39:37;;;;;;;24.17;13.93;;;;;;;;;;5042825;28;19913;-56
2023/04/18 09:42:04;;;;;;;26.35;14.55;;;;;;;;;;5042714;28;20036;-56
2023/04/18 09:44:31;;;;;;;22.73;13.95;;;;;;;;;;5043359;28;20033;-56
2023/04/18 09:46:57;;;;;;;22.38;14.05;;;;;;;;;;5046452;28;20040;-57
2023/04/18 09:49:23;;;;;;;23.23;14.40;;;;;;;;;;5036791;28;20041;-57
2023/04/18 09:51:50;;;;;;;24.60;14.70;;;;;;;;;;5041738;28;20029;-57
2023/04/18 09:54:18;;;;;;;23.33;13.32;;;;;;;;;;5042014;28;20637;-56
2023/04/18 09:56:45;;;;;;;23.88;14.13;;;;;;;;;;5040522;28;20419;-57
2023/04/18 09:59:15;;;;;;;21.50;13.95;;;;;;;;;;5044305;28;20061;-58
2023/04/18 10:01:46;;;;;;;22.40;13.30;;;;;;;;;;5050643;28;20033;-56
2023/04/18 10:04:13;;;;;;;20.20;13.20;;;;;;;;;;5041959;28;20045;-56
2023/04/18 10:06:41;;;;;;;19.90;12.35;;;;;;;;;;5033582;28;20037;-58
2023/04/18 10:09:08;;;;;;;23.10;13.43;;;;;;;;;;5043074;28;20060;-57
2023/04/18 10:11:35;;;;;;;20.48;12.63;;;;;;;;;;5047986;28;20426;-56
2023/04/18 10:14:05;;;;;;;23.20;13.93;;;;;;;;;;5039921;28;20045;-57
2023/04/18 10:16:32;;;;;;;23.25;13.32;;;;;;;;;;5044203;28;20049;-56
2023/04/18 10:19:28;;;;;;;20.27;12.40;;;;;;;;;;5036602;28;20041;-56
2023/04/18 10:21:56;;;;;;;22.77;12.77;;;;;;;;;;5043119;28;20040;-59
2023/04/18 10:24:44;;;;;;;23.45;13.07;;;;;;;;;;5042837;28;20395;-57
2023/04/18 10:27:10;;;;;;;22.80;13.38;;;;;;;;;;5046520;28;20037;-58
2023/04/18 10:29:50;;;;;;;22.65;13.48;;;;;;;;;;5043415;28;20037;-57
2023/04/18 10:32:18;;;;;;;21.38;12.85;;;;;;;;;;5052362;28;20029;-56
2023/04/18 10:34:46;;;;;;;20.17;12.10;;;;;;;;;;5042345;28;20033;-57
2023/04/18 10:37:13;;;;;;;18.92;11.80;;;;;;;;;;5045900;28;20029;-57
2023/04/18 10:39:54;;;;;;;19.60;12.55;;;;;;;;;;5043197;28;20041;-57
2023/04/18 10:42:45;;;;;;;19.88;12.10;;;;;;;;;;5040029;28;20037;-57
2023/04/18 10:45:29;;;;;;;18.30;12.43;;;;;;;;;;5041876;28;20045;-56
2023/04/18 10:48:31;;;;;;;17.23;11.30;;;;;;;;;;5042140;28;20037;-57
2023/04/18 10:51:18;;;;;;;17.25;10.85;;;;;;;;;;5047787;28;20581;-56
2023/04/18 10:53:51;;;;;;;17.52;11.43;;;;;;;;;;5040291;28;20049;-57
2023/04/18 10:56:17;;;;;;;21.83;11.13;;;;;;;;;;5045222;28;20044;-57
2023/04/18 10:58:49;;;;;;;16.75;10.82;;;;;;;;;;5041878;28;20029;-58
2023/04/18 11:01:28;;;;;;;17.45;10.40;;;;;;;;;;5043335;28;20467;-57
2023/04/18 11:03:55;;;;;;;16.90;10.05;;;;;;;;;;5043706;28;20407;-58
2023/04/18 11:06:22;;;;;;;15.82;10.32;;;;;;;;;;5045441;28;20442;-56
2023/04/18 11:08:48;;;;;;;16.52;10.40;;;;;;;;;;5050515;28;20479;-57
2023/04/18 11:11:15;;;;;;;17.25;10.55;;;;;;;;;;5047579;28;20037;-56
2023/04/18 11:13:57;;;;;;;16.55;10.68;;;;;;;;;;5046072;28;20029;-57
2023/04/18 11:16:25;;;;;;;15.52;9.95;;;;;;;;;;5042561;28;20044;-57
2023/04/18 11:18:52;;;;;;;15.18;9.52;;;;;;;;;;5046535;28;20056;-56
2023/04/18 11:21:19;;;;;;;17.08;9.48;;;;;;;;;;5045325;28;20036;-56
2023/04/18 11:23:46;;;;;;;17.52;9.95;;;;;;;;;;5040038;28;20033;-57
2023/04/18 11:26:16;;;;;;;15.02;10.07;;;;;;;;;;5044604;28;20049;-57
2023/04/18 11:28:43;;;;;;;15.90;10.05;;;;;;;;;;5046860;28;20032;-56
2023/04/18 11:31:09;;;;;;;17.40;10.23;;;;;;;;;;5044397;28;20386;-57
2023/04/18 11:33:35;;;;;;;17.40;10.20;;;;;;;;;;5041817;28;20048;-56
2023/04/18 11:36:01;;;;;;;14.05;9.32;;;;;;;;;;5043865;28;20044;-57
2023/04/18 11:38:32;;;;;;;13.77;9.07;;;;;;;;;;5042535;28;20045;-57
2023/04/18 11:41:01;;;;;;;15.55;9.38;;;;;;;;;;5036983;28;20041;-57
2023/04/18 11:43:27;;;;;;;11.90;8.60;;;;;;;;;;5038454;28;20041;-57
2023/04/18 11:45:57;;;;;;;15.45;9.15;;;;;;;;;;5048704;28;20028;-57
2023/04/18 11:48:33;;;;;;;13.93;8.48;;;;;;;;;;5036574;28;20049;-57
2023/04/18 11:51:00;;;;;;;12.40;7.07;;;;;;;;;;5037893;28;20029;-56
2023/04/18 11:53:34;;;;;;;12.60;6.90;;;;;;;;;;5041083;28;20063;-56
2023/04/18 11:56:02;;;;;;;11.20;6.20;;;;;;;;;;5047655;28;20036;-57
2023/04/18 11:58:30;;;;;;;12.77;7.50;;;;;;;;;;5049629;28;20518;-56
2023/04/18 12:00:57;;;;;;;12.25;7.60;;;;;;;;;;5043014;28;20046;-55
2023/04/18 12:03:23;;;;;;;10.93;7.35;;;;;;;;;;5040515;28;20029;-56
2023/04/18 12:05:58;;;;;;;11.93;7.10;;;;;;;;;;5036549;28;20041;-56
2023/04/18 12:08:25;;;;;;;9.00;6.75;;;;;;;;;;5036849;28;20039;-56
2023/04/18 12:10:53;;;;;;;11.40;8.00;;;;;;;;;;5044324;28;20514;-56
2023/04/18 12:13:25;;;;;;;11.10;7.85;;;;;;;;;;5044396;28;20029;-56
2023/04/18 12:15:53;;;;;;;11.70;8.23;;;;;;;;;;5035969;28;20038;-57
2023/04/18 12:18:19;;;;;;;11.88;7.60;;;;;;;;;;5038502;28;20032;-56
2023/04/18 12:20:52;;;;;;;11.20;7.10;;;;;;;;;;5046591;28;20044;-57
2023/04/18 12:23:29;;;;;;;10.93;7.55;;;;;;;;;;5046327;28;20041;-57
2023/04/18 12:26:17;;;;;;;16.20;8.23;;;;;;;;;;5043934;28;20451;-57
2023/04/18 12:28:44;;;;;;;12.93;7.28;;;;;;;;;;5043154;28;20036;-58
2023/04/18 12:31:11;;;;;;;11.23;7.22;;;;;;;;;;5043413;28;20049;-57
2023/04/18 12:33:38;;;;;;;14.93;7.90;;;;;;;;;;5045226;28;20041;-57
2023/04/18 12:36:04;;;;;;;9.68;6.78;;;;;;;;;;5037620;28;20041;-58
2023/04/18 12:38:31;;;;;;;10.32;7.13;;;;;;;;;;5041533;28;20029;-57
2023/04/18 12:40:57;;;;;;;10.50;7.32;;;;;;;;;;5042235;28;20080;-57
2023/04/18 12:43:24;;;;;;;12.38;7.20;;;;;;;;;;5037094;28;20029;-57
2023/04/18 12:45:50;;;;;;;19.58;9.77;;;;;;;;;;5048950;28;20041;-57
2023/04/18 12:48:16;;;;;;;12.40;7.53;;;;;;;;;;5046799;28;20482;-57
2023/04/18 12:50:43;;;;;;;11.02;6.97;;;;;;;;;;5048259;28;20056;-54
2023/04/18 12:53:09;;;;;;;11.48;6.90;;;;;;;;;;5033400;28;20045;-58
2023/04/18 12:55:35;;;;;;;10.68;7.22;;;;;;;;;;5038259;28;20041;-58
2023/04/18 12:58:02;;;;;;;10.40;6.72;;;;;;;;;;5039850;28;20120;-57
2023/04/18 13:00:31;;;;;;;10.55;5.95;;;;;;;;;;5044788;28;20045;-57
2023/04/18 13:02:57;;;;;;;9.40;6.40;;;;;;;;;;5042540;28;20510;-58
2023/04/18 13:05:26;;;;;;;10.02;6.60;;;;;;;;;;5038061;28;20037;-56
2023/04/18 13:07:53;;;;;;;10.88;6.97;;;;;;;;;;5030157;28;20044;-58
2023/04/18 13:10:21;;;;;;;12.15;7.22;;;;;;;;;;5033600;28;20044;-57
2023/04/18 13:12:49;;;;;;;12.60;7.53;;;;;;;;;;5036955;28;20497;-57
2023/04/18 13:15:15;;;;;;;9.73;6.18;;;;;;;;;;5044423;28;20060;-58
2023/04/18 13:17:43;;;;;;;10.55;6.97;;;;;;;;;;5040054;28;20451;-56
2023/04/18 13:20:11;;;;;;;9.27;5.80;;;;;;;;;;5043396;28;20066;-57
2023/04/18 13:22:38;;;;;;;11.18;6.10;;;;;;;;;;5044327;28;20040;-58
2023/04/18 13:25:07;;;;;;;9.40;6.40;;;;;;;;;;5040955;28;20048;-56
2023/04/18 13:27:33;;;;;;;9.88;6.40;;;;;;;;;;5042882;28;20049;-57
2023/04/18 13:29:59;;;;;;;11.20;6.60;;;;;;;;;;5043705;28;20040;-57
2023/04/18 13:32:26;;;;;;;9.57;6.30;;;;;;;;;;5048059;28;20426;-57
2023/04/18 13:34:52;;;;;;;10.63;6.35;;;;;;;;;;5040408;28;20048;-57
2023/04/18 13:37:18;;;;;;;9.07;6.10;;;;;;;;;;5042365;28;20045;-57
2023/04/18 13:39:45;;;;;;;10.05;6.03;;;;;;;;;;5046453;28;20044;-56
2023/04/18 13:42:11;;;;;;;9.27;6.43;;;;;;;;;;5040678;28;20037;-59
2023/04/18 13:44:38;;;;;;;9.80;6.38;;;;;;;;;;5042624;28;20052;-58
2023/04/18 13:47:06;;;;;;;12.38;6.75;;;;;;;;;;5035452;28;20041;-58
2023/04/18 13:49:34;;;;;;;9.25;5.97;;;;;;;;;;5039535;28;20051;-57
2023/04/18 13:52:00;;;;;;;9.20;6.30;;;;;;;;;;5041556;28;20037;-57
2023/04/18 13:54:29;;;;;;;10.75;6.75;;;;;;;;;;5033435;28;20051;-58
2023/04/18 13:56:56;;;;;;;9.25;6.05;;;;;;;;;;5044502;28;20040;-57
2023/04/18 13:59:23;;;;;;;12.32;7.20;;;;;;;;;;5045477;28;20483;-59
2023/04/18 14:01:53;;;;;;;11.98;7.15;;;;;;;;;;5046229;28;20053;-58
2023/04/18 14:04:21;;;;;;;13.75;8.35;;;;;;;;;;5040270;28;20048;-58
2023/04/18 14:06:47;;;;;;;11.10;6.75;;;;;;;;;;5032104;28;20033;-57
2023/04/18 14:09:14;;;;;;;10.20;6.82;;;;;;;;;;5034922;28;20411;-58
2023/04/18 14:11:40;;;;;;;10.48;6.95;;;;;;;;;;5038590;28;20044;-58
2023/04/18 14:14:06;;;;;;;7.72;5.65;;;;;;;;;;5042331;28;20033;-58
2023/04/18 14:16:33;;;;;;;8.68;6.70;;;;;;;;;;5036741;28;20060;-58
2023/04/18 14:19:00;;;;;;;10.43;7.70;;;;;;;;;;5041392;28;20060;-57
2023/04/18 14:21:27;;;;;;;9.38;6.63;;;;;;;;;;5040938;28;20029;-57
2023/04/18 14:23:54;;;;;;;10.82;7.30;;;;;;;;;;5039873;28;20041;-57
2023/04/18 14:26:20;;;;;;;15.90;9.38;;;;;;;;;;5041649;28;20049;-58